createdAt,value
2023-04-29T00:00:55.568Z,25.05
2023-04-29T00:01:55.584Z,25.05
2023-04-29T00:02:55.690Z,25.05
2023-04-29T00:03:55.726Z,25.05
2023-04-29T00:04:55.970Z,25.05
2023-04-29T00:05:55.672Z,25.05
2023-04-29T00:06:55.585Z,25.05
2023-04-29T00:07:55.605Z,25.06
2023-04-29T00:08:55.607Z,25.05
2023-04-29T00:09:55.632Z,25.04
2023-04-29T00:10:55.662Z,25.05
2023-04-29T00:11:55.614Z,25.05
2023-04-29T00:12:55.680Z,25.05
2023-04-29T00:13:55.724Z,25.05
2023-04-29T00:14:55.772Z,25.05
2023-04-29T00:15:55.866Z,25.05
2023-04-29T00:16:55.917Z,25.05
2023-04-29T00:17:56.037Z,25.05
2023-04-29T00:18:56.036Z,25.04
2023-04-29T00:19:56.096Z,25.05
2023-04-29T00:20:56.165Z,25.04
2023-04-29T00:21:56.231Z,25.05
2023-04-29T00:22:56.282Z,25.05
2023-04-29T00:23:56.331Z,25.04
2023-04-29T00:24:56.368Z,25.04
2023-04-29T00:25:56.444Z,25.04
2023-04-29T00:26:56.504Z,25.05
2023-04-29T00:27:56.578Z,25.04
2023-04-29T00:28:56.656Z,25.04
2023-04-29T00:29:56.715Z,25.04
2023-04-29T00:30:56.748Z,25.04
2023-04-29T00:31:56.727Z,25.04
2023-04-29T00:32:56.795Z,25.04
2023-04-29T00:33:56.814Z,25.04
2023-04-29T00:34:56.873Z,25.04
2023-04-29T00:35:56.964Z,25.04
2023-04-29T00:36:57.021Z,25.03
2023-04-29T00:37:57.075Z,25.04
2023-04-29T00:38:57.116Z,25.03
2023-04-29T00:39:57.119Z,25.03
2023-04-29T00:40:57.129Z,25.04
2023-04-29T00:41:57.130Z,25.03
2023-04-29T00:42:57.166Z,25.04
2023-04-29T00:43:57.118Z,25.04
2023-04-29T00:44:57.181Z,25.03
2023-04-29T00:45:57.250Z,25.03
2023-04-29T00:46:57.271Z,25.03
2023-04-29T00:47:57.423Z,25.04
2023-04-29T00:48:57.366Z,25.03
2023-04-29T00:49:57.418Z,25.03
2023-04-29T00:50:57.483Z,25.02
2023-04-29T00:51:57.503Z,25.03
2023-04-29T00:52:57.638Z,25.03
2023-04-29T00:53:57.653Z,25.03
2023-04-29T00:54:57.701Z,25.04
2023-04-29T00:55:57.776Z,25.04
2023-04-29T00:56:57.807Z,25.03
2023-04-29T00:57:57.903Z,25.04
2023-04-29T00:58:57.946Z,25.03
2023-04-29T00:59:58.000Z,25.03
2023-04-29T01:00:58.064Z,25.03
2023-04-29T01:01:58.220Z,25.03
2023-04-29T01:02:58.347Z,25.03
2023-04-29T01:03:58.417Z,25.04
2023-04-29T01:04:58.404Z,25.03
2023-04-29T01:05:58.379Z,25.03
2023-04-29T01:06:58.424Z,25.03
2023-04-29T01:07:58.454Z,25.03
2023-04-29T01:08:58.538Z,25.03
2023-04-29T01:09:58.611Z,25.02
2023-04-29T01:10:58.660Z,25.03
2023-04-29T01:11:58.691Z,25.03
2023-04-29T01:12:58.774Z,25.03
2023-04-29T01:13:58.865Z,25.03
2023-04-29T01:14:58.900Z,25.03
2023-04-29T01:15:59.019Z,25.02
2023-04-29T01:16:59.013Z,25.02
2023-04-29T01:17:59.147Z,25.03
2023-04-29T01:18:59.168Z,25.02
2023-04-29T01:19:59.196Z,25.03
2023-04-29T01:20:59.237Z,25.02
2023-04-29T01:21:59.285Z,25.02
2023-04-29T01:22:59.355Z,25.02
2023-04-29T01:23:59.390Z,25.02
2023-04-29T01:24:59.447Z,25.02
2023-04-29T01:25:59.513Z,25.02
2023-04-29T01:26:59.592Z,25.02
2023-04-29T01:27:59.637Z,25.01
2023-04-29T01:28:59.712Z,25.02
2023-04-29T01:29:59.730Z,25.02
2023-04-29T01:30:59.776Z,25.02
2023-04-29T01:31:59.785Z,25.02
2023-04-29T01:32:59.832Z,25.01
2023-04-29T01:33:59.840Z,25.02
2023-04-29T01:34:59.927Z,25.01
2023-04-29T01:35:59.959Z,25.01
2023-04-29T01:37:00.027Z,25.01
2023-04-29T01:38:00.098Z,25.02
2023-04-29T01:39:00.160Z,25.02
2023-04-29T01:40:00.216Z,25.01
2023-04-29T01:41:00.282Z,25.01
2023-04-29T01:42:00.362Z,25.01
2023-04-29T01:43:00.402Z,25.01
2023-04-29T01:44:00.449Z,25.01
2023-04-29T01:45:00.436Z,25.01
2023-04-29T01:46:00.433Z,25.01
2023-04-29T01:47:00.527Z,25.02
2023-04-29T01:48:00.552Z,25.02
2023-04-29T01:49:00.455Z,25.02
2023-04-29T01:50:00.483Z,25.01
2023-04-29T01:51:00.472Z,25.00
2023-04-29T01:52:00.471Z,25.01
2023-04-29T01:53:00.491Z,25.01
2023-04-29T01:54:00.511Z,25.02
2023-04-29T01:55:00.572Z,25.01
2023-04-29T01:56:00.538Z,25.02
2023-04-29T01:57:00.501Z,25.01
2023-04-29T01:58:00.538Z,25.01
2023-04-29T01:59:00.532Z,25.00
2023-04-29T02:00:00.539Z,25.01
2023-04-29T02:01:00.609Z,25.00
2023-04-29T02:02:00.569Z,25.01
2023-04-29T02:03:00.629Z,25.00
2023-04-29T02:04:00.703Z,25.00
2023-04-29T02:05:00.630Z,25.00
2023-04-29T02:06:00.578Z,24.99
2023-04-29T02:07:00.586Z,25.00
2023-04-29T02:08:00.559Z,25.00
2023-04-29T02:09:00.606Z,24.99
2023-04-29T02:10:00.636Z,24.99
2023-04-29T02:11:00.650Z,24.99
2023-04-29T02:12:00.634Z,24.99
2023-04-29T02:13:00.600Z,25.00
2023-04-29T02:14:00.603Z,24.99
2023-04-29T02:15:00.645Z,24.99
2023-04-29T02:16:00.673Z,24.99
2023-04-29T02:17:00.656Z,24.98
2023-04-29T02:18:00.688Z,24.99
2023-04-29T02:19:00.681Z,25.00
2023-04-29T02:20:00.636Z,24.99
2023-04-29T02:21:00.671Z,25.00
2023-04-29T02:22:00.656Z,24.99
2023-04-29T02:23:00.642Z,24.99
2023-04-29T02:24:00.653Z,24.99
2023-04-29T02:25:00.679Z,24.99
2023-04-29T02:26:00.693Z,24.99
2023-04-29T02:27:00.665Z,24.99
2023-04-29T02:28:00.701Z,24.99
2023-04-29T02:29:00.758Z,24.99
2023-04-29T02:30:00.820Z,24.98
2023-04-29T02:31:00.891Z,24.98
2023-04-29T02:32:01.013Z,24.98
2023-04-29T02:33:01.110Z,24.98
2023-04-29T02:34:01.078Z,24.99
2023-04-29T02:35:01.113Z,24.98
2023-04-29T02:36:01.210Z,24.98
2023-04-29T02:37:01.244Z,24.98
2023-04-29T02:38:01.335Z,24.98
2023-04-29T02:39:01.369Z,24.98
2023-04-29T02:40:01.424Z,24.98
2023-04-29T02:41:01.503Z,24.98
2023-04-29T02:42:01.559Z,24.99
2023-04-29T02:43:01.590Z,24.98
2023-04-29T02:44:01.666Z,24.98
2023-04-29T02:45:01.687Z,24.98
2023-04-29T02:46:01.719Z,24.98
2023-04-29T02:47:01.661Z,24.98
2023-04-29T02:48:01.741Z,24.99
2023-04-29T02:49:01.696Z,24.98
2023-04-29T02:50:01.700Z,24.98
2023-04-29T02:51:01.707Z,24.99
2023-04-29T02:52:01.716Z,24.98
2023-04-29T02:53:01.714Z,24.97
2023-04-29T02:54:01.717Z,24.98
2023-04-29T02:55:01.744Z,24.98
2023-04-29T02:56:01.742Z,24.98
2023-04-29T02:57:01.755Z,24.98
2023-04-29T02:58:01.740Z,24.97
2023-04-29T02:59:01.853Z,24.98
2023-04-29T03:00:01.788Z,24.98
2023-04-29T03:01:01.823Z,24.97
2023-04-29T03:02:01.778Z,24.98
2023-04-29T03:03:02.017Z,24.97
2023-04-29T03:04:02.054Z,24.97
2023-04-29T03:05:01.805Z,24.97
2023-04-29T03:06:01.818Z,24.97
2023-04-29T03:07:01.818Z,24.97
2023-04-29T03:08:01.881Z,24.98
2023-04-29T03:09:01.900Z,24.98
2023-04-29T03:10:01.933Z,24.98
2023-04-29T03:11:01.998Z,24.97
2023-04-29T03:12:02.088Z,24.97
2023-04-29T03:13:02.108Z,24.98
2023-04-29T03:14:02.164Z,24.97
2023-04-29T03:15:02.221Z,24.97
2023-04-29T03:16:02.298Z,24.96
2023-04-29T03:17:02.366Z,24.97
2023-04-29T03:18:02.457Z,24.98
2023-04-29T03:19:02.486Z,24.97
2023-04-29T03:20:02.528Z,24.97
2023-04-29T03:21:02.632Z,24.97
2023-04-29T03:22:02.659Z,24.97
2023-04-29T03:23:02.717Z,24.97
2023-04-29T03:24:02.813Z,24.97
2023-04-29T03:25:02.869Z,24.96
2023-04-29T03:26:02.907Z,24.97
2023-04-29T03:27:02.985Z,24.96
2023-04-29T03:28:03.034Z,24.97
2023-04-29T03:29:03.075Z,24.97
2023-04-29T03:30:03.126Z,24.97
2023-04-29T03:31:03.349Z,24.96
2023-04-29T03:32:03.247Z,24.96
2023-04-29T03:33:03.318Z,24.97
2023-04-29T03:34:03.386Z,24.97
2023-04-29T03:35:03.444Z,24.96
2023-04-29T03:36:03.487Z,24.96
2023-04-29T03:37:03.556Z,24.97
2023-04-29T03:38:03.624Z,24.96
2023-04-29T03:39:03.671Z,24.96
2023-04-29T03:40:03.719Z,24.96
2023-04-29T03:41:03.819Z,24.96
2023-04-29T03:42:03.855Z,24.97
2023-04-29T03:43:03.928Z,24.96
2023-04-29T03:44:03.964Z,24.96
2023-04-29T03:45:04.045Z,24.96
2023-04-29T03:46:04.126Z,24.97
2023-04-29T03:47:04.181Z,24.96
2023-04-29T03:48:04.299Z,24.96
2023-04-29T03:49:04.302Z,24.97
2023-04-29T03:50:04.319Z,24.96
2023-04-29T03:51:04.415Z,24.96
2023-04-29T03:52:04.458Z,24.96
2023-04-29T03:53:04.524Z,24.96
2023-04-29T03:54:04.570Z,24.97
2023-04-29T03:55:04.580Z,24.96
2023-04-29T03:56:04.616Z,24.96
2023-04-29T03:57:04.613Z,24.96
2023-04-29T03:58:04.604Z,24.96
2023-04-29T03:59:04.565Z,24.96
2023-04-29T04:00:04.697Z,24.96
2023-04-29T04:01:04.600Z,24.96
2023-04-29T04:02:04.637Z,24.95
2023-04-29T04:03:05.950Z,24.96
2023-04-29T04:04:04.750Z,24.95
2023-04-29T04:05:04.679Z,24.95
2023-04-29T04:06:04.630Z,24.95
2023-04-29T04:07:04.619Z,24.95
2023-04-29T04:08:04.633Z,24.95
2023-04-29T04:09:04.670Z,24.95
2023-04-29T04:10:04.654Z,24.94
2023-04-29T04:11:04.726Z,24.94
2023-04-29T04:12:04.754Z,24.93
2023-04-29T04:13:04.830Z,24.94
2023-04-29T04:14:04.936Z,24.94
2023-04-29T04:15:04.911Z,24.94
2023-04-29T04:16:05.068Z,24.93
2023-04-29T04:17:05.071Z,24.94
2023-04-29T04:18:05.173Z,24.94
2023-04-29T04:19:05.210Z,24.94
2023-04-29T04:20:05.250Z,24.94
2023-04-29T04:21:05.273Z,24.93
2023-04-29T04:22:05.321Z,24.94
2023-04-29T04:23:05.261Z,24.94
2023-04-29T04:24:05.245Z,24.94
2023-04-29T04:25:05.247Z,24.94
2023-04-29T04:26:05.290Z,24.93
2023-04-29T04:27:05.302Z,24.93
2023-04-29T04:28:05.304Z,24.93
2023-04-29T04:29:05.310Z,24.93
2023-04-29T04:30:05.280Z,24.93
2023-04-29T04:31:05.331Z,24.93
2023-04-29T04:32:05.501Z,24.93
2023-04-29T04:33:05.388Z,24.92
2023-04-29T04:34:05.398Z,24.93
2023-04-29T04:35:05.440Z,24.92
2023-04-29T04:36:05.573Z,24.93
2023-04-29T04:37:05.573Z,24.92
2023-04-29T04:38:05.662Z,24.92
2023-04-29T04:39:05.705Z,24.93
2023-04-29T04:40:05.736Z,24.93
2023-04-29T04:41:05.754Z,24.93
2023-04-29T04:42:05.876Z,24.93
2023-04-29T04:43:05.907Z,24.93
2023-04-29T04:44:05.965Z,24.93
2023-04-29T04:45:05.999Z,24.93
2023-04-29T04:46:06.073Z,24.92
2023-04-29T04:47:06.072Z,24.92
2023-04-29T04:48:06.145Z,24.92
2023-04-29T04:49:06.205Z,24.92
2023-04-29T04:50:06.214Z,24.92
2023-04-29T04:51:06.264Z,24.92
2023-04-29T04:52:06.274Z,24.92
2023-04-29T04:53:06.345Z,24.92
2023-04-29T04:54:06.401Z,24.93
2023-04-29T04:55:06.458Z,24.93
2023-04-29T04:56:06.531Z,24.93
2023-04-29T04:57:06.580Z,24.92
2023-04-29T04:58:06.642Z,24.92
2023-04-29T04:59:06.697Z,24.92
2023-04-29T05:00:06.712Z,24.92
2023-04-29T05:01:06.829Z,24.92
2023-04-29T05:02:06.819Z,24.92
2023-04-29T05:03:06.994Z,24.92
2023-04-29T05:04:07.002Z,24.92
2023-04-29T05:05:06.934Z,24.92
2023-04-29T05:06:06.979Z,24.91
2023-04-29T05:07:07.015Z,24.92
2023-04-29T05:08:07.103Z,24.92
2023-04-29T05:09:07.098Z,24.91
2023-04-29T05:10:07.179Z,24.91
2023-04-29T05:11:07.176Z,24.91
2023-04-29T05:12:07.206Z,24.92
2023-04-29T05:13:07.268Z,24.91
2023-04-29T05:14:07.314Z,24.91
2023-04-29T05:15:07.361Z,24.92
2023-04-29T05:16:07.442Z,24.92
2023-04-29T05:17:07.524Z,24.91
2023-04-29T05:18:07.562Z,24.91
2023-04-29T05:19:07.674Z,24.92
2023-04-29T05:20:07.665Z,24.92
2023-04-29T05:21:07.733Z,24.91
2023-04-29T05:22:07.739Z,24.92
2023-04-29T05:23:07.771Z,24.92
2023-04-29T05:24:07.798Z,24.92
2023-04-29T05:25:07.882Z,24.91
2023-04-29T05:26:07.950Z,24.92
2023-04-29T05:27:07.992Z,24.92
2023-04-29T05:28:08.048Z,24.91
2023-04-29T05:29:08.091Z,24.91
2023-04-29T05:30:08.134Z,24.91
2023-04-29T05:31:08.222Z,24.92
2023-04-29T05:32:08.249Z,24.92
2023-04-29T05:33:08.328Z,24.92
2023-04-29T05:34:08.358Z,24.91
2023-04-29T05:35:08.398Z,24.92
2023-04-29T05:36:08.447Z,24.92
2023-04-29T05:37:08.459Z,24.91
2023-04-29T05:38:08.531Z,24.91
2023-04-29T05:39:08.565Z,24.92
2023-04-29T05:40:09.161Z,24.92
2023-04-29T05:41:08.606Z,24.92
2023-04-29T05:42:08.637Z,24.92
2023-04-29T05:43:08.695Z,24.92
2023-04-29T05:44:08.736Z,24.92
2023-04-29T05:45:08.805Z,24.91
2023-04-29T05:46:08.863Z,24.91
2023-04-29T05:47:08.856Z,24.91
2023-04-29T05:48:08.970Z,24.92
2023-04-29T05:49:08.947Z,24.91
2023-04-29T05:50:09.038Z,24.92
2023-04-29T05:51:09.060Z,24.92
2023-04-29T05:52:09.095Z,24.91
2023-04-29T05:53:09.153Z,24.91
2023-04-29T05:54:09.215Z,24.92
2023-04-29T05:55:09.249Z,24.92
2023-04-29T05:56:09.328Z,24.91
2023-04-29T05:57:09.300Z,24.92
2023-04-29T05:58:09.345Z,24.92
2023-04-29T05:59:09.364Z,24.92
2023-04-29T06:00:09.390Z,24.91
2023-04-29T06:01:09.438Z,24.92
2023-04-29T06:02:09.498Z,24.92
2023-04-29T06:03:09.566Z,24.92
2023-04-29T06:04:09.747Z,24.91
2023-04-29T06:05:09.794Z,24.91
2023-04-29T06:06:09.510Z,24.92
2023-04-29T06:07:09.560Z,24.92
2023-04-29T06:08:09.609Z,24.92
2023-04-29T06:09:19.764Z,24.92
2023-04-29T06:10:10.645Z,24.93
2023-04-29T06:11:09.636Z,24.93
2023-04-29T06:12:09.644Z,24.93
2023-04-29T06:13:09.603Z,24.94
2023-04-29T06:14:09.616Z,24.94
2023-04-29T06:15:09.619Z,24.95
2023-04-29T06:16:09.648Z,24.95
2023-04-29T06:17:09.569Z,24.96
2023-04-29T06:18:09.579Z,24.96
2023-04-29T06:19:09.563Z,24.95
2023-04-29T06:20:09.590Z,24.96
2023-04-29T06:21:09.553Z,24.96
2023-04-29T06:22:09.561Z,24.96
2023-04-29T06:23:09.573Z,24.96
2023-04-29T06:24:09.569Z,24.97
2023-04-29T06:25:09.629Z,24.98
2023-04-29T06:26:09.660Z,24.98
2023-04-29T06:27:09.728Z,24.97
2023-04-29T06:28:09.763Z,24.97
2023-04-29T06:29:09.822Z,24.97
2023-04-29T06:30:09.849Z,24.98
2023-04-29T06:31:09.991Z,24.98
2023-04-29T06:32:10.023Z,24.98
2023-04-29T06:33:10.091Z,24.98
2023-04-29T06:34:10.092Z,24.99
2023-04-29T06:35:10.150Z,24.99
2023-04-29T06:36:10.225Z,25.00
2023-04-29T06:37:10.337Z,25.00
2023-04-29T06:38:10.344Z,25.01
2023-04-29T06:39:10.441Z,25.01
2023-04-29T06:40:10.506Z,25.01
2023-04-29T06:41:10.528Z,25.03
2023-04-29T06:42:10.612Z,25.03
2023-04-29T06:43:10.672Z,25.04
2023-04-29T06:44:10.723Z,25.04
2023-04-29T06:45:10.814Z,25.06
2023-04-29T06:46:10.860Z,25.07
2023-04-29T06:47:11.018Z,25.07
2023-04-29T06:48:10.915Z,25.08
2023-04-29T06:49:10.894Z,25.09
2023-04-29T06:50:10.923Z,25.10
2023-04-29T06:51:10.916Z,25.11
2023-04-29T06:52:10.921Z,25.12
2023-04-29T06:53:10.931Z,25.13
2023-04-29T06:54:10.944Z,25.13
2023-04-29T06:55:10.968Z,25.15
2023-04-29T06:56:10.954Z,25.16
2023-04-29T06:57:10.971Z,25.17
2023-04-29T06:58:10.983Z,25.17
2023-04-29T06:59:10.970Z,25.18
2023-04-29T07:00:10.985Z,25.19
2023-04-29T07:01:11.085Z,25.20
2023-04-29T07:02:11.019Z,25.19
2023-04-29T07:03:11.185Z,25.21
2023-04-29T07:04:11.115Z,25.21
2023-04-29T07:05:11.126Z,25.22
2023-04-29T07:06:11.188Z,25.22
2023-04-29T07:07:11.280Z,25.23
2023-04-29T07:08:11.275Z,25.23
2023-04-29T07:09:11.362Z,25.24
2023-04-29T07:10:11.412Z,25.24
2023-04-29T07:11:11.478Z,25.25
2023-04-29T07:12:11.517Z,25.25
2023-04-29T07:13:11.555Z,25.26
2023-04-29T07:14:11.611Z,25.27
2023-04-29T07:15:11.683Z,25.27
2023-04-29T07:16:11.741Z,25.29
2023-04-29T07:17:14.049Z,25.29
2023-04-29T07:18:11.900Z,25.30
2023-04-29T07:19:11.941Z,25.32
2023-04-29T07:20:12.010Z,25.32
2023-04-29T07:21:12.027Z,25.34
2023-04-29T07:22:12.081Z,25.35
2023-04-29T07:23:12.121Z,25.36
2023-04-29T07:24:12.164Z,25.37
2023-04-29T07:25:12.232Z,25.37
2023-04-29T07:26:12.246Z,25.39
2023-04-29T07:27:12.285Z,25.39
2023-04-29T07:28:12.301Z,25.40
2023-04-29T07:29:12.328Z,25.41
2023-04-29T07:30:12.301Z,25.42
2023-04-29T07:31:13.231Z,25.42
2023-04-29T07:32:12.281Z,25.43
2023-04-29T07:33:12.283Z,25.43
2023-04-29T07:34:12.304Z,25.44
2023-04-29T07:35:12.304Z,25.44
2023-04-29T07:36:12.329Z,25.44
2023-04-29T07:37:12.290Z,25.44
2023-04-29T07:38:12.292Z,25.44
2023-04-29T07:39:12.280Z,25.44
2023-04-29T07:40:12.285Z,25.44
2023-04-29T07:41:12.312Z,25.44
2023-04-29T07:42:12.262Z,25.44
2023-04-29T07:43:12.289Z,25.45
2023-04-29T07:44:12.251Z,25.46
2023-04-29T07:45:12.274Z,25.45
2023-04-29T07:46:12.435Z,25.47
2023-04-29T07:47:12.385Z,25.48
2023-04-29T07:48:12.368Z,25.48
2023-04-29T07:49:12.416Z,25.50
2023-04-29T07:50:12.460Z,25.51
2023-04-29T07:51:12.480Z,25.53
2023-04-29T07:52:12.500Z,25.53
2023-04-29T07:53:12.560Z,25.55
2023-04-29T07:54:12.608Z,25.57
2023-04-29T07:55:12.653Z,25.58
2023-04-29T07:56:12.719Z,25.59
2023-04-29T07:57:12.745Z,25.60
2023-04-29T07:58:12.818Z,25.62
2023-04-29T07:59:12.869Z,25.64
2023-04-29T08:00:12.949Z,25.66
2023-04-29T08:01:12.954Z,25.67
2023-04-29T08:02:13.056Z,25.68
2023-04-29T08:03:13.232Z,25.69
2023-04-29T08:04:13.219Z,25.70
2023-04-29T08:05:13.346Z,25.71
2023-04-29T08:06:13.341Z,25.72
2023-04-29T08:07:13.118Z,25.73
2023-04-29T08:08:13.145Z,25.75
2023-04-29T08:09:13.157Z,25.76
2023-04-29T08:10:13.190Z,25.77
2023-04-29T08:11:13.197Z,25.79
2023-04-29T08:12:13.183Z,25.80
2023-04-29T08:13:13.233Z,25.81
2023-04-29T08:14:13.249Z,25.83
2023-04-29T08:15:13.253Z,25.84
2023-04-29T08:16:13.299Z,25.85
2023-04-29T08:17:13.314Z,25.85
2023-04-29T08:18:13.375Z,25.87
2023-04-29T08:19:13.423Z,25.88
2023-04-29T08:20:13.459Z,25.88
2023-04-29T08:21:13.528Z,25.90
2023-04-29T08:22:13.579Z,25.91
2023-04-29T08:23:13.616Z,25.92
2023-04-29T08:24:13.651Z,25.93
2023-04-29T08:25:13.732Z,25.94
2023-04-29T08:26:13.758Z,25.95
2023-04-29T08:27:13.801Z,25.95
2023-04-29T08:28:13.868Z,25.96
2023-04-29T08:29:13.918Z,25.97
2023-04-29T08:30:13.947Z,25.97
2023-04-29T08:31:14.066Z,26.00
2023-04-29T08:32:14.041Z,26.00
2023-04-29T08:33:14.054Z,26.00
2023-04-29T08:34:14.043Z,26.02
2023-04-29T08:35:14.044Z,26.03
2023-04-29T08:36:14.054Z,26.03
2023-04-29T08:37:14.655Z,26.05
2023-04-29T08:38:14.016Z,26.06
2023-04-29T08:39:14.019Z,26.06
2023-04-29T08:40:14.023Z,26.06
2023-04-29T08:41:14.082Z,26.07
2023-04-29T08:42:14.072Z,26.07
2023-04-29T08:43:14.090Z,26.08
2023-04-29T08:44:14.154Z,26.09
2023-04-29T08:45:14.173Z,26.11
2023-04-29T08:46:14.306Z,26.12
2023-04-29T08:47:14.244Z,26.13
2023-04-29T08:48:14.353Z,26.15
2023-04-29T08:49:14.602Z,26.14
2023-04-29T08:50:14.343Z,26.15
2023-04-29T08:51:14.372Z,26.16
2023-04-29T08:52:14.389Z,26.17
2023-04-29T08:53:14.482Z,26.17
2023-04-29T08:54:14.436Z,26.19
2023-04-29T08:55:14.449Z,26.20
2023-04-29T08:56:14.506Z,26.21
2023-04-29T08:57:14.527Z,26.21
2023-04-29T08:58:14.550Z,26.21
2023-04-29T08:59:14.572Z,26.22
2023-04-29T09:00:14.602Z,26.23
2023-04-29T09:01:14.677Z,26.24
2023-04-29T09:02:14.728Z,26.24
2023-04-29T09:03:14.875Z,26.24
2023-04-29T09:04:14.913Z,26.25
2023-04-29T09:05:14.883Z,26.25
2023-04-29T09:06:14.955Z,26.26
2023-04-29T09:07:15.036Z,26.27
2023-04-29T09:08:15.092Z,26.27
2023-04-29T09:09:15.172Z,26.28
2023-04-29T09:10:15.202Z,26.28
2023-04-29T09:11:15.267Z,26.30
2023-04-29T09:12:15.320Z,26.30
2023-04-29T09:13:15.390Z,26.30
2023-04-29T09:14:15.491Z,26.31
2023-04-29T09:15:15.515Z,26.31
2023-04-29T09:16:15.605Z,26.32
2023-04-29T09:17:15.615Z,26.32
2023-04-29T09:18:15.675Z,26.33
2023-04-29T09:19:15.774Z,26.33
2023-04-29T09:20:15.811Z,26.34
2023-04-29T09:21:15.870Z,26.34
2023-04-29T09:22:15.857Z,26.35
2023-04-29T09:23:15.872Z,26.36
2023-04-29T09:24:15.879Z,26.36
2023-04-29T09:25:15.932Z,26.36
2023-04-29T09:26:15.950Z,26.36
2023-04-29T09:27:16.000Z,26.37
2023-04-29T09:28:16.140Z,26.37
2023-04-29T09:29:16.294Z,26.38
2023-04-29T09:30:16.238Z,26.38
2023-04-29T09:31:16.299Z,26.38
2023-04-29T09:32:16.357Z,26.39
2023-04-29T09:33:16.350Z,26.40
2023-04-29T09:34:16.382Z,26.40
2023-04-29T09:35:16.396Z,26.41
2023-04-29T09:36:16.442Z,26.41
2023-04-29T09:37:16.512Z,26.42
2023-04-29T09:38:16.604Z,26.43
2023-04-29T09:39:16.629Z,26.43
2023-04-29T09:40:16.676Z,26.44
2023-04-29T09:41:16.759Z,26.44
2023-04-29T09:42:16.824Z,26.45
2023-04-29T09:43:16.883Z,26.44
2023-04-29T09:44:16.921Z,26.45
2023-04-29T09:45:16.978Z,26.45
2023-04-29T09:46:17.069Z,26.46
2023-04-29T09:47:17.113Z,26.47
2023-04-29T09:48:17.129Z,26.47
2023-04-29T09:49:17.147Z,26.47
2023-04-29T09:50:17.202Z,26.48
2023-04-29T09:51:17.169Z,26.48
2023-04-29T09:52:17.153Z,26.49
2023-04-29T09:53:17.176Z,26.49
2023-04-29T09:54:17.297Z,26.49
2023-04-29T09:55:17.192Z,26.49
2023-04-29T09:56:17.223Z,26.49
2023-04-29T09:57:17.180Z,26.50
2023-04-29T09:58:17.246Z,26.51
2023-04-29T09:59:17.245Z,26.51
2023-04-29T10:00:17.327Z,26.50
2023-04-29T10:01:17.399Z,26.50
2023-04-29T10:02:17.413Z,26.49
2023-04-29T10:03:17.558Z,26.49
2023-04-29T10:04:17.431Z,26.49
2023-04-29T10:05:17.678Z,26.48
2023-04-29T10:06:17.428Z,26.48
2023-04-29T10:07:17.667Z,26.47
2023-04-29T10:08:17.442Z,26.46
2023-04-29T10:09:17.457Z,26.46
2023-04-29T10:10:17.533Z,26.45
2023-04-29T10:11:17.491Z,26.45
2023-04-29T10:12:17.613Z,26.45
2023-04-29T10:13:17.654Z,26.44
2023-04-29T10:14:17.709Z,26.44
2023-04-29T10:15:17.725Z,26.43
2023-04-29T10:16:17.839Z,26.43
2023-04-29T10:17:17.835Z,26.43
2023-04-29T10:18:17.924Z,26.43
2023-04-29T10:19:17.932Z,26.42
2023-04-29T10:20:18.022Z,26.42
2023-04-29T10:21:18.051Z,26.41
2023-04-29T10:22:18.107Z,26.40
2023-04-29T10:23:18.163Z,26.40
2023-04-29T10:24:18.207Z,26.39
2023-04-29T10:25:18.277Z,26.40
2023-04-29T10:26:18.359Z,26.40
2023-04-29T10:27:18.280Z,26.40
2023-04-29T10:28:18.271Z,26.40
2023-04-29T10:29:18.334Z,26.40
2023-04-29T10:30:18.390Z,26.41
2023-04-29T10:31:18.502Z,26.41
2023-04-29T10:32:18.502Z,26.43
2023-04-29T10:33:18.624Z,26.44
2023-04-29T10:34:18.615Z,26.44
2023-04-29T10:35:18.685Z,26.44
2023-04-29T10:36:18.744Z,26.45
2023-04-29T10:37:18.780Z,26.45
2023-04-29T10:38:19.138Z,26.46
2023-04-29T10:39:18.898Z,26.46
2023-04-29T10:40:18.962Z,26.45
2023-04-29T10:41:18.996Z,26.46
2023-04-29T10:42:19.058Z,26.46
2023-04-29T10:43:19.105Z,26.45
2023-04-29T10:44:19.216Z,26.45
2023-04-29T10:45:19.246Z,26.45
2023-04-29T10:46:19.310Z,26.44
2023-04-29T10:47:19.357Z,26.44
2023-04-29T10:48:19.392Z,26.42
2023-04-29T10:49:19.398Z,26.41
2023-04-29T10:50:19.374Z,26.41
2023-04-29T10:51:19.385Z,26.40
2023-04-29T10:52:19.415Z,26.40
2023-04-29T10:53:19.472Z,26.40
2023-04-29T10:54:19.433Z,26.40
2023-04-29T10:55:19.441Z,26.41
2023-04-29T10:56:19.452Z,26.41
2023-04-29T10:57:19.492Z,26.41
2023-04-29T10:58:19.466Z,26.41
2023-04-29T10:59:19.495Z,26.41
2023-04-29T11:00:19.598Z,26.42
2023-04-29T11:01:19.508Z,26.41
2023-04-29T11:02:19.507Z,26.42
2023-04-29T11:03:19.563Z,26.41
2023-04-29T11:04:19.539Z,26.43
2023-04-29T11:05:19.523Z,26.42
2023-04-29T11:06:19.527Z,26.41
2023-04-29T11:07:19.581Z,26.42
2023-04-29T11:08:19.545Z,26.42
2023-04-29T11:09:19.576Z,26.41
2023-04-29T11:10:19.575Z,26.41
2023-04-29T11:11:19.629Z,26.41
2023-04-29T11:12:19.692Z,26.41
2023-04-29T11:13:19.734Z,26.41
2023-04-29T11:14:19.791Z,26.40
2023-04-29T11:15:19.871Z,26.41
2023-04-29T11:16:19.970Z,26.40
2023-04-29T11:17:19.999Z,26.40
2023-04-29T11:18:20.027Z,26.40
2023-04-29T11:19:20.062Z,26.40
2023-04-29T11:20:20.111Z,26.39
2023-04-29T11:21:20.128Z,26.40
2023-04-29T11:22:20.119Z,26.39
2023-04-29T11:23:20.156Z,26.39
2023-04-29T11:24:20.179Z,26.39
2023-04-29T11:25:20.157Z,26.38
2023-04-29T11:26:20.175Z,26.38
2023-04-29T11:27:20.226Z,26.37
2023-04-29T11:28:20.245Z,26.36
2023-04-29T11:29:20.221Z,26.36
2023-04-29T11:30:20.244Z,26.34
2023-04-29T11:31:20.365Z,26.34
2023-04-29T11:32:20.446Z,26.34
2023-04-29T11:33:20.415Z,26.32
2023-04-29T11:34:20.462Z,26.31
2023-04-29T11:35:20.534Z,26.31
2023-04-29T11:36:20.594Z,26.30
2023-04-29T11:37:20.685Z,26.30
2023-04-29T11:38:20.729Z,26.30
2023-04-29T11:39:20.774Z,26.29
2023-04-29T11:40:20.811Z,26.29
2023-04-29T11:41:20.890Z,26.29
2023-04-29T11:42:20.958Z,26.28
2023-04-29T11:43:21.025Z,26.26
2023-04-29T11:44:21.093Z,26.26
2023-04-29T11:45:21.160Z,26.25
2023-04-29T11:46:21.254Z,26.25
2023-04-29T11:47:21.308Z,26.24
2023-04-29T11:48:21.298Z,26.23
2023-04-29T11:49:21.356Z,26.24
2023-04-29T11:50:21.367Z,26.23
2023-04-29T11:51:21.393Z,26.22
2023-04-29T11:52:21.431Z,26.22
2023-04-29T11:53:21.432Z,26.21
2023-04-29T11:54:21.475Z,26.20
2023-04-29T11:55:21.522Z,26.20
2023-04-29T11:56:21.546Z,26.19
2023-04-29T11:57:21.574Z,26.18
2023-04-29T11:58:21.551Z,26.18
2023-04-29T11:59:21.608Z,26.18
2023-04-29T12:00:21.610Z,26.18
2023-04-29T12:01:21.669Z,26.17
2023-04-29T12:02:21.785Z,26.17
2023-04-29T12:03:21.881Z,26.17
2023-04-29T12:04:22.129Z,26.18
2023-04-29T12:05:21.912Z,26.18
2023-04-29T12:06:21.776Z,26.17
2023-04-29T12:07:21.762Z,26.17
2023-04-29T12:08:21.794Z,26.17
2023-04-29T12:09:21.833Z,26.17
2023-04-29T12:10:21.886Z,26.17
2023-04-29T12:11:21.882Z,26.17
2023-04-29T12:12:21.924Z,26.17
2023-04-29T12:13:21.930Z,26.17
2023-04-29T12:14:21.964Z,26.17
2023-04-29T12:15:21.966Z,26.16
2023-04-29T12:16:22.012Z,26.17
2023-04-29T12:17:22.107Z,26.16
2023-04-29T12:18:22.114Z,26.16
2023-04-29T12:19:22.057Z,26.15
2023-04-29T12:20:22.114Z,26.15
2023-04-29T12:21:22.091Z,26.15
2023-04-29T12:22:22.130Z,26.15
2023-04-29T12:23:22.169Z,26.15
2023-04-29T12:24:22.224Z,26.17
2023-04-29T12:25:22.249Z,26.16
2023-04-29T12:26:22.229Z,26.17
2023-04-29T12:27:22.253Z,26.18
2023-04-29T12:28:22.292Z,26.18
2023-04-29T12:29:22.324Z,26.18
2023-04-29T12:30:22.348Z,26.17
2023-04-29T12:31:22.411Z,26.18
2023-04-29T12:32:22.429Z,26.18
2023-04-29T12:33:22.440Z,26.18
2023-04-29T12:34:22.447Z,26.17
2023-04-29T12:35:22.461Z,26.17
2023-04-29T12:36:22.512Z,26.17
2023-04-29T12:37:22.560Z,26.17
2023-04-29T12:38:22.591Z,26.18
2023-04-29T12:39:22.616Z,26.16
2023-04-29T12:40:22.660Z,26.16
2023-04-29T12:41:22.680Z,26.15
2023-04-29T12:42:22.726Z,26.15
2023-04-29T12:43:22.726Z,26.16
2023-04-29T12:44:22.847Z,26.16
2023-04-29T12:45:22.809Z,26.15
2023-04-29T12:46:22.906Z,26.15
2023-04-29T12:47:22.958Z,26.15
2023-04-29T12:48:30.017Z,26.14
2023-04-29T12:49:23.902Z,26.14
2023-04-29T12:50:22.920Z,26.14
2023-04-29T12:51:22.911Z,26.14
2023-04-29T12:52:22.861Z,26.13
2023-04-29T12:53:22.852Z,26.14